logo dgac
Martes 21 de Septiembre del 2021
Buscar por aerodromo o helipuerto
Ingrese nombre de aeródromo, localidad o designador OACI:
TAF: TAF SCDA 211021Z 2112/2212 20004KT 9999 OVC027 TX17/2118Z TN14/2210Z BECMG 2115/2117 24012KT SCT030 BECMG 2202/2204 20004KT BKN030
TAF del 21/09/2021 a las 10:21 UTC
Para mayor información visite www.meteochile.cl
Período de validez: desde el 21 a las 12:00 UTC hasta el 22 a las 12:00 UTC
Viento: dirección 200 grados, velocidad 4 nudos
Visibilidad: 10 km o más
Nubes: Cubierto a 2700 pies sobre el nivel del aeródromo
Temperatura máxima: 17ºC el 21 a las 18:00 UTC
Temperatura mínima: 14ºC el 22 a las 10:00 UTC
Se espera un cambio entre las 15:00 UTC del 21 y las 17:00 UTC del 21, :
Viento: dirección 240 grados, velocidad 12 nudos
Nubes: Nubosidad parcial a 3000 pies sobre el nivel del aeródromo
Se espera un cambio entre las 02:00 UTC del 22 y las 04:00 UTC del 22, :
Viento: dirección 200 grados, velocidad 4 nudos
Nubes: Nublado a 3000 pies sobre el nivel del aeródromo